Terminal Aerodrome Forecast
Issued by NWS

Home | Current Version | Previous Version | Text Only | Print | Product List | Glossary On
Versions: 1 2 3 4 5 6 7 8 9 10 11 12 13 14
000
FTUS45 KPIH 251120
TAFSUN
TAF
KSUN 251120Z 2512/2612 32010KT P6SM BKN110
     FM251800 15009KT P6SM -SHRA VCTS BKN080CB OVC100
     FM260400 31009KT P6SM BKN090
      AMD LTD TO CLD VIS AND WIND TIL 251300=

USA.gov is the U.S. government's official web portal to all federal, state and local government web resources and services.